sensor_id;sensor_type;location;lat;lon;timestamp;temperature;humidity
65179;DHT22;51849;47.476;8.084;2022-07-10T00:00:05;16.90;64.80
65179;DHT22;51849;47.476;8.084;2022-07-10T00:02:34;16.90;64.80
65179;DHT22;51849;47.476;8.084;2022-07-10T00:05:00;16.90;64.80
65179;DHT22;51849;47.476;8.084;2022-07-10T00:07:25;16.80;65.10
65179;DHT22;51849;47.476;8.084;2022-07-10T00:09:51;16.90;65.30
65179;DHT22;51849;47.476;8.084;2022-07-10T00:12:17;16.90;65.40
65179;DHT22;51849;47.476;8.084;2022-07-10T00:14:42;16.80;65.30
65179;DHT22;51849;47.476;8.084;2022-07-10T00:17:08;16.80;65.30
65179;DHT22;51849;47.476;8.084;2022-07-10T00:19:34;16.80;65.40
65179;DHT22;51849;47.476;8.084;2022-07-10T00:21:59;16.90;65.40
65179;DHT22;51849;47.476;8.084;2022-07-10T00:24:25;16.80;65.20
65179;DHT22;51849;47.476;8.084;2022-07-10T00:26:51;16.80;64.90
65179;DHT22;51849;47.476;8.084;2022-07-10T00:29:16;16.80;65.20
65179;DHT22;51849;47.476;8.084;2022-07-10T00:31:42;16.80;65.40
65179;DHT22;51849;47.476;8.084;2022-07-10T00:34:08;16.70;65.50
65179;DHT22;51849;47.476;8.084;2022-07-10T00:36:33;16.80;65.50
65179;DHT22;51849;47.476;8.084;2022-07-10T00:38:59;16.70;65.60
65179;DHT22;51849;47.476;8.084;2022-07-10T00:41:25;16.70;65.60
65179;DHT22;51849;47.476;8.084;2022-07-10T00:43:54;16.60;65.70
65179;DHT22;51849;47.476;8.084;2022-07-10T00:46:26;16.50;65.80
65179;DHT22;51849;47.476;8.084;2022-07-10T00:48:53;16.40;66.30
65179;DHT22;51849;47.476;8.084;2022-07-10T00:51:20;16.30;66.70
65179;DHT22;51849;47.476;8.084;2022-07-10T00:53:48;16.20;67.10
65179;DHT22;51849;47.476;8.084;2022-07-10T00:56:15;16.20;67.40
65179;DHT22;51849;47.476;8.084;2022-07-10T00:58:44;16.20;67.60
65179;DHT22;51849;47.476;8.084;2022-07-10T01:01:11;16.30;67.40
65179;DHT22;51849;47.476;8.084;2022-07-10T01:03:36;16.30;67.10
65179;DHT22;51849;47.476;8.084;2022-07-10T01:06:02;16.30;67.00
65179;DHT22;51849;47.476;8.084;2022-07-10T01:08:28;16.30;67.00
65179;DHT22;51849;47.476;8.084;2022-07-10T01:10:54;16.30;66.80
65179;DHT22;51849;47.476;8.084;2022-07-10T01:13:20;16.20;67.10
65179;DHT22;51849;47.476;8.084;2022-07-10T01:15:49;16.20;67.40
65179;DHT22;51849;47.476;8.084;2022-07-10T01:18:15;16.10;67.50
65179;DHT22;51849;47.476;8.084;2022-07-10T01:20:40;16.10;67.60
65179;DHT22;51849;47.476;8.084;2022-07-10T01:23:06;16.10;67.50
65179;DHT22;51849;47.476;8.084;2022-07-10T01:25:32;16.00;67.50
65179;DHT22;51849;47.476;8.084;2022-07-10T01:27:58;16.00;67.90
65179;DHT22;51849;47.476;8.084;2022-07-10T01:30:24;15.90;68.00
65179;DHT22;51849;47.476;8.084;2022-07-10T01:32:51;15.90;68.10
65179;DHT22;51849;47.476;8.084;2022-07-10T01:35:17;16.00;68.20
65179;DHT22;51849;47.476;8.084;2022-07-10T01:37:43;15.90;68.40
65179;DHT22;51849;47.476;8.084;2022-07-10T01:40:09;15.90;68.40
65179;DHT22;51849;47.476;8.084;2022-07-10T01:42:36;16.00;68.40
65179;DHT22;51849;47.476;8.084;2022-07-10T01:45:03;16.00;68.60
65179;DHT22;51849;47.476;8.084;2022-07-10T01:47:33;15.90;68.30
65179;DHT22;51849;47.476;8.084;2022-07-10T01:49:59;15.90;68.40
65179;DHT22;51849;47.476;8.084;2022-07-10T01:52:24;15.80;68.50
65179;DHT22;51849;47.476;8.084;2022-07-10T01:54:50;15.80;68.70
65179;DHT22;51849;47.476;8.084;2022-07-10T01:57:16;15.70;68.70
65179;DHT22;51849;47.476;8.084;2022-07-10T01:59:42;15.60;69.10
65179;DHT22;51849;47.476;8.084;2022-07-10T02:02:08;15.50;69.60
65179;DHT22;51849;47.476;8.084;2022-07-10T02:04:34;15.50;69.80
65179;DHT22;51849;47.476;8.084;2022-07-10T02:07:09;15.60;69.60
65179;DHT22;51849;47.476;8.084;2022-07-10T02:09:39;15.70;69.50
65179;DHT22;51849;47.476;8.084;2022-07-10T02:12:05;15.60;69.50
65179;DHT22;51849;47.476;8.084;2022-07-10T02:14:32;15.60;69.40
65179;DHT22;51849;47.476;8.084;2022-07-10T02:16:57;15.50;69.50
65179;DHT22;51849;47.476;8.084;2022-07-10T02:19:23;15.50;69.50
65179;DHT22;51849;47.476;8.084;2022-07-10T02:21:49;15.40;69.70
65179;DHT22;51849;47.476;8.084;2022-07-10T02:24:15;15.40;69.80
65179;DHT22;51849;47.476;8.084;2022-07-10T02:26:40;15.30;70.00
65179;DHT22;51849;47.476;8.084;2022-07-10T02:29:06;15.30;69.80
65179;DHT22;51849;47.476;8.084;2022-07-10T02:31:32;15.30;69.90
65179;DHT22;51849;47.476;8.084;2022-07-10T02:34:00;15.40;69.90
65179;DHT22;51849;47.476;8.084;2022-07-10T02:36:26;15.40;69.90
65179;DHT22;51849;47.476;8.084;2022-07-10T02:38:51;15.40;70.20
65179;DHT22;51849;47.476;8.084;2022-07-10T02:41:17;15.30;70.10
65179;DHT22;51849;47.476;8.084;2022-07-10T02:43:43;15.30;70.10
65179;DHT22;51849;47.476;8.084;2022-07-10T02:46:08;15.40;69.90
65179;DHT22;51849;47.476;8.084;2022-07-10T02:48:34;15.40;70.10
65179;DHT22;51849;47.476;8.084;2022-07-10T02:51:00;15.40;70.10
65179;DHT22;51849;47.476;8.084;2022-07-10T02:53:25;15.40;70.00
65179;DHT22;51849;47.476;8.084;2022-07-10T02:55:53;15.40;69.80
65179;DHT22;51849;47.476;8.084;2022-07-10T02:58:19;15.30;69.90
65179;DHT22;51849;47.476;8.084;2022-07-10T03:00:45;15.30;69.70
65179;DHT22;51849;47.476;8.084;2022-07-10T03:03:10;15.30;70.20
65179;DHT22;51849;47.476;8.084;2022-07-10T03:05:37;15.20;70.50
65179;DHT22;51849;47.476;8.084;2022-07-10T03:08:02;15.20;70.40
65179;DHT22;51849;47.476;8.084;2022-07-10T03:10:29;15.20;70.30
65179;DHT22;51849;47.476;8.084;2022-07-10T03:12:54;15.20;70.10
65179;DHT22;51849;47.476;8.084;2022-07-10T03:15:20;15.20;70.20
65179;DHT22;51849;47.476;8.084;2022-07-10T03:17:46;15.10;70.30
65179;DHT22;51849;47.476;8.084;2022-07-10T03:20:11;15.10;70.50
65179;DHT22;51849;47.476;8.084;2022-07-10T03:22:37;15.10;70.70
65179;DHT22;51849;47.476;8.084;2022-07-10T03:25:03;15.10;70.90
65179;DHT22;51849;47.476;8.084;2022-07-10T03:27:29;15.10;71.10
65179;DHT22;51849;47.476;8.084;2022-07-10T03:29:55;15.00;71.80
65179;DHT22;51849;47.476;8.084;2022-07-10T03:32:20;14.90;72.30
65179;DHT22;51849;47.476;8.084;2022-07-10T03:34:46;14.90;72.60
65179;DHT22;51849;47.476;8.084;2022-07-10T03:37:12;14.90;72.80
65179;DHT22;51849;47.476;8.084;2022-07-10T03:39:37;14.90;73.40
65179;DHT22;51849;47.476;8.084;2022-07-10T03:42:03;14.90;73.50
65179;DHT22;51849;47.476;8.084;2022-07-10T03:44:29;15.00;73.30
65179;DHT22;51849;47.476;8.084;2022-07-10T03:46:57;14.90;73.00
65179;DHT22;51849;47.476;8.084;2022-07-10T03:49:23;15.00;72.30
65179;DHT22;51849;47.476;8.084;2022-07-10T03:51:48;15.10;72.20
65179;DHT22;51849;47.476;8.084;2022-07-10T03:54:14;15.10;72.20
65179;DHT22;51849;47.476;8.084;2022-07-10T03:56:40;15.20;71.80
65179;DHT22;51849;47.476;8.084;2022-07-10T03:59:27;15.20;71.40
65179;DHT22;51849;47.476;8.084;2022-07-10T04:01:53;15.20;71.70
65179;DHT22;51849;47.476;8.084;2022-07-10T04:04:20;15.30;72.30
65179;DHT22;51849;47.476;8.084;2022-07-10T04:06:45;15.20;72.40
65179;DHT22;51849;47.476;8.084;2022-07-10T04:09:11;15.20;72.80
65179;DHT22;51849;47.476;8.084;2022-07-10T04:11:37;15.10;73.20
65179;DHT22;51849;47.476;8.084;2022-07-10T04:14:03;15.10;73.10
65179;DHT22;51849;47.476;8.084;2022-07-10T04:16:28;15.10;72.70
65179;DHT22;51849;47.476;8.084;2022-07-10T04:18:54;15.20;72.80
65179;DHT22;51849;47.476;8.084;2022-07-10T04:21:20;15.30;72.70
65179;DHT22;51849;47.476;8.084;2022-07-10T04:23:45;15.30;72.90
65179;DHT22;51849;47.476;8.084;2022-07-10T04:26:11;15.40;72.60
65179;DHT22;51849;47.476;8.084;2022-07-10T04:28:39;15.40;72.80
65179;DHT22;51849;47.476;8.084;2022-07-10T04:31:05;15.50;73.00
65179;DHT22;51849;47.476;8.084;2022-07-10T04:33:33;15.40;72.80
65179;DHT22;51849;47.476;8.084;2022-07-10T04:35:58;15.40;73.00
65179;DHT22;51849;47.476;8.084;2022-07-10T04:38:24;15.40;73.30
65179;DHT22;51849;47.476;8.084;2022-07-10T04:40:52;15.40;73.00
65179;DHT22;51849;47.476;8.084;2022-07-10T04:43:18;15.50;73.30
65179;DHT22;51849;47.476;8.084;2022-07-10T04:45:43;15.50;73.00
65179;DHT22;51849;47.476;8.084;2022-07-10T04:48:10;15.60;72.90
65179;DHT22;51849;47.476;8.084;2022-07-10T04:50:36;15.70;73.00
65179;DHT22;51849;47.476;8.084;2022-07-10T04:53:01;15.80;72.80
65179;DHT22;51849;47.476;8.084;2022-07-10T04:55:27;15.80;72.50
65179;DHT22;51849;47.476;8.084;2022-07-10T04:57:53;15.90;72.50
65179;DHT22;51849;47.476;8.084;2022-07-10T05:00:20;15.90;72.40
65179;DHT22;51849;47.476;8.084;2022-07-10T05:02:46;15.90;72.30
65179;DHT22;51849;47.476;8.084;2022-07-10T05:05:12;15.90;72.20
65179;DHT22;51849;47.476;8.084;2022-07-10T05:07:37;16.00;72.00
65179;DHT22;51849;47.476;8.084;2022-07-10T05:10:03;16.00;71.70
65179;DHT22;51849;47.476;8.084;2022-07-10T05:12:30;16.20;72.00
65179;DHT22;51849;47.476;8.084;2022-07-10T05:14:56;16.20;72.40
65179;DHT22;51849;47.476;8.084;2022-07-10T05:17:22;16.20;72.70
65179;DHT22;51849;47.476;8.084;2022-07-10T05:19:48;16.30;73.00
65179;DHT22;51849;47.476;8.084;2022-07-10T05:22:13;16.30;73.10
65179;DHT22;51849;47.476;8.084;2022-07-10T05:24:39;16.30;73.00
65179;DHT22;51849;47.476;8.084;2022-07-10T05:27:05;16.20;73.20
65179;DHT22;51849;47.476;8.084;2022-07-10T05:29:31;16.20;73.30
65179;DHT22;51849;47.476;8.084;2022-07-10T05:31:56;16.20;73.20
65179;DHT22;51849;47.476;8.084;2022-07-10T05:34:22;16.30;72.80
65179;DHT22;51849;47.476;8.084;2022-07-10T05:36:47;16.30;72.70
65179;DHT22;51849;47.476;8.084;2022-07-10T05:39:13;16.30;72.50
65179;DHT22;51849;47.476;8.084;2022-07-10T05:41:39;16.30;72.40
65179;DHT22;51849;47.476;8.084;2022-07-10T05:44:04;16.40;72.20
65179;DHT22;51849;47.476;8.084;2022-07-10T05:46:30;16.40;72.20
65179;DHT22;51849;47.476;8.084;2022-07-10T05:48:56;16.50;72.10
65179;DHT22;51849;47.476;8.084;2022-07-10T05:51:22;16.60;72.00
65179;DHT22;51849;47.476;8.084;2022-07-10T05:53:47;16.80;71.40
65179;DHT22;51849;47.476;8.084;2022-07-10T05:56:13;17.10;70.50
65179;DHT22;51849;47.476;8.084;2022-07-10T05:58:39;17.40;69.80
65179;DHT22;51849;47.476;8.084;2022-07-10T06:01:04;17.80;68.10
65179;DHT22;51849;47.476;8.084;2022-07-10T06:03:30;18.20;66.40
65179;DHT22;51849;47.476;8.084;2022-07-10T06:05:56;18.60;64.00
65179;DHT22;51849;47.476;8.084;2022-07-10T06:08:21;18.80;62.80
65179;DHT22;51849;47.476;8.084;2022-07-10T06:10:47;19.00;62.40
65179;DHT22;51849;47.476;8.084;2022-07-10T06:13:13;19.20;61.70
65179;DHT22;51849;47.476;8.084;2022-07-10T06:15:38;19.20;61.40
65179;DHT22;51849;47.476;8.084;2022-07-10T06:18:04;19.00;62.20
65179;DHT22;51849;47.476;8.084;2022-07-10T06:20:30;19.10;62.20
65179;DHT22;51849;47.476;8.084;2022-07-10T06:22:56;19.00;62.40
65179;DHT22;51849;47.476;8.084;2022-07-10T06:25:22;19.00;63.00
65179;DHT22;51849;47.476;8.084;2022-07-10T06:27:48;19.20;62.30
65179;DHT22;51849;47.476;8.084;2022-07-10T06:30:14;19.50;61.90
65179;DHT22;51849;47.476;8.084;2022-07-10T06:32:40;19.80;60.80
65179;DHT22;51849;47.476;8.084;2022-07-10T06:35:06;20.10;60.40
65179;DHT22;51849;47.476;8.084;2022-07-10T06:37:33;20.20;59.60
65179;DHT22;51849;47.476;8.084;2022-07-10T06:39:59;20.40;58.90
65179;DHT22;51849;47.476;8.084;2022-07-10T06:42:25;20.40;59.00
65179;DHT22;51849;47.476;8.084;2022-07-10T06:44:51;20.10;59.80
65179;DHT22;51849;47.476;8.084;2022-07-10T06:47:18;20.10;60.30
65179;DHT22;51849;47.476;8.084;2022-07-10T06:50:07;20.10;60.20
65179;DHT22;51849;47.476;8.084;2022-07-10T06:52:34;20.40;59.20
65179;DHT22;51849;47.476;8.084;2022-07-10T06:55:04;20.70;58.10
65179;DHT22;51849;47.476;8.084;2022-07-10T06:57:30;20.50;58.00
65179;DHT22;51849;47.476;8.084;2022-07-10T06:59:55;20.60;57.90
65179;DHT22;51849;47.476;8.084;2022-07-10T07:02:21;20.80;57.50
65179;DHT22;51849;47.476;8.084;2022-07-10T07:04:47;21.00;56.80
65179;DHT22;51849;47.476;8.084;2022-07-10T07:07:13;21.30;56.40
65179;DHT22;51849;47.476;8.084;2022-07-10T07:09:40;21.40;56.00
65179;DHT22;51849;47.476;8.084;2022-07-10T07:12:07;21.60;55.20
65179;DHT22;51849;47.476;8.084;2022-07-10T07:14:33;21.70;54.50
65179;DHT22;51849;47.476;8.084;2022-07-10T07:16:59;21.90;53.60
65179;DHT22;51849;47.476;8.084;2022-07-10T07:19:29;21.80;52.90
65179;DHT22;51849;47.476;8.084;2022-07-10T07:22:19;21.90;53.00
65179;DHT22;51849;47.476;8.084;2022-07-10T07:25:08;22.00;52.70
65179;DHT22;51849;47.476;8.084;2022-07-10T07:27:35;21.90;54.20
65179;DHT22;51849;47.476;8.084;2022-07-10T07:30:04;21.60;55.50
65179;DHT22;51849;47.476;8.084;2022-07-10T07:32:31;21.50;54.50
65179;DHT22;51849;47.476;8.084;2022-07-10T07:34:58;21.60;54.10
65179;DHT22;51849;47.476;8.084;2022-07-10T07:37:37;21.70;54.20
65179;DHT22;51849;47.476;8.084;2022-07-10T07:40:10;21.60;54.10
65179;DHT22;51849;47.476;8.084;2022-07-10T07:42:40;21.40;55.40
65179;DHT22;51849;47.476;8.084;2022-07-10T07:45:06;21.50;54.40
65179;DHT22;51849;47.476;8.084;2022-07-10T07:47:42;21.40;54.30
65179;DHT22;51849;47.476;8.084;2022-07-10T07:50:12;21.50;54.90
65179;DHT22;51849;47.476;8.084;2022-07-10T07:52:39;21.60;54.70
65179;DHT22;51849;47.476;8.084;2022-07-10T07:55:05;21.70;53.30
65179;DHT22;51849;47.476;8.084;2022-07-10T07:57:31;21.60;53.00
65179;DHT22;51849;47.476;8.084;2022-07-10T07:59:56;21.60;52.80
65179;DHT22;51849;47.476;8.084;2022-07-10T08:02:22;21.70;52.50
65179;DHT22;51849;47.476;8.084;2022-07-10T08:04:48;22.00;51.00
65179;DHT22;51849;47.476;8.084;2022-07-10T08:07:14;22.10;52.00
65179;DHT22;51849;47.476;8.084;2022-07-10T08:09:39;22.20;51.90
65179;DHT22;51849;47.476;8.084;2022-07-10T08:12:05;22.30;52.30
65179;DHT22;51849;47.476;8.084;2022-07-10T08:14:31;22.50;52.00
65179;DHT22;51849;47.476;8.084;2022-07-10T08:16:57;22.40;51.20
65179;DHT22;51849;47.476;8.084;2022-07-10T08:19:25;22.30;51.80
65179;DHT22;51849;47.476;8.084;2022-07-10T08:21:51;22.40;52.30
65179;DHT22;51849;47.476;8.084;2022-07-10T08:24:16;22.80;51.00
65179;DHT22;51849;47.476;8.084;2022-07-10T08:26:42;22.90;49.70
65179;DHT22;51849;47.476;8.084;2022-07-10T08:29:08;22.80;50.40
65179;DHT22;51849;47.476;8.084;2022-07-10T08:31:36;22.80;50.60
65179;DHT22;51849;47.476;8.084;2022-07-10T08:34:02;22.80;50.10
65179;DHT22;51849;47.476;8.084;2022-07-10T08:36:28;22.90;50.40
65179;DHT22;51849;47.476;8.084;2022-07-10T08:38:53;22.90;51.10
65179;DHT22;51849;47.476;8.084;2022-07-10T08:41:24;23.00;50.40
65179;DHT22;51849;47.476;8.084;2022-07-10T08:43:50;23.20;49.10
65179;DHT22;51849;47.476;8.084;2022-07-10T08:46:17;23.30;48.30
65179;DHT22;51849;47.476;8.084;2022-07-10T08:48:48;23.40;48.20
65179;DHT22;51849;47.476;8.084;2022-07-10T08:51:30;23.40;48.80
65179;DHT22;51849;47.476;8.084;2022-07-10T08:54:00;23.30;50.50
65179;DHT22;51849;47.476;8.084;2022-07-10T08:56:26;23.00;51.00
65179;DHT22;51849;47.476;8.084;2022-07-10T08:58:52;22.70;51.70
65179;DHT22;51849;47.476;8.084;2022-07-10T09:01:19;22.60;52.20
65179;DHT22;51849;47.476;8.084;2022-07-10T09:03:48;22.70;51.40
65179;DHT22;51849;47.476;8.084;2022-07-10T09:06:16;22.80;51.10
65179;DHT22;51849;47.476;8.084;2022-07-10T09:08:58;23.10;50.40
65179;DHT22;51849;47.476;8.084;2022-07-10T09:11:24;23.20;50.10
65179;DHT22;51849;47.476;8.084;2022-07-10T09:13:57;23.30;49.60
65179;DHT22;51849;47.476;8.084;2022-07-10T09:16:36;23.20;49.70
65179;DHT22;51849;47.476;8.084;2022-07-10T09:21:47;23.40;48.70
65179;DHT22;51849;47.476;8.084;2022-07-10T09:27:06;23.60;47.10
65179;DHT22;51849;47.476;8.084;2022-07-10T09:29:44;23.60;47.70
65179;DHT22;51849;47.476;8.084;2022-07-10T09:32:11;23.80;47.40
65179;DHT22;51849;47.476;8.084;2022-07-10T09:37:45;23.90;46.50
65179;DHT22;51849;47.476;8.084;2022-07-10T09:39:59;23.90;46.00
65179;DHT22;51849;47.476;8.084;2022-07-10T09:42:32;23.80;45.80
65179;DHT22;51849;47.476;8.084;2022-07-10T09:47:37;24.20;44.80
65179;DHT22;51849;47.476;8.084;2022-07-10T09:50:03;24.10;45.50
65179;DHT22;51849;47.476;8.084;2022-07-10T09:52:42;24.20;45.70
65179;DHT22;51849;47.476;8.084;2022-07-10T09:55:08;24.10;46.30
65179;DHT22;51849;47.476;8.084;2022-07-10T09:57:34;24.30;45.50
65179;DHT22;51849;47.476;8.084;2022-07-10T10:00:00;24.40;45.60
65179;DHT22;51849;47.476;8.084;2022-07-10T10:02:26;24.50;44.90
65179;DHT22;51849;47.476;8.084;2022-07-10T10:04:51;24.30;44.90
65179;DHT22;51849;47.476;8.084;2022-07-10T10:07:18;24.40;44.40
65179;DHT22;51849;47.476;8.084;2022-07-10T10:09:46;24.40;44.80
65179;DHT22;51849;47.476;8.084;2022-07-10T10:12:38;24.50;44.40
65179;DHT22;51849;47.476;8.084;2022-07-10T10:15:09;24.50;44.50
65179;DHT22;51849;47.476;8.084;2022-07-10T10:17:36;24.50;45.40
65179;DHT22;51849;47.476;8.084;2022-07-10T10:20:03;24.70;44.20
65179;DHT22;51849;47.476;8.084;2022-07-10T10:22:49;24.60;44.20
65179;DHT22;51849;47.476;8.084;2022-07-10T10:25:15;24.70;44.70
65179;DHT22;51849;47.476;8.084;2022-07-10T10:27:44;24.80;44.50
65179;DHT22;51849;47.476;8.084;2022-07-10T10:30:10;25.00;43.90
65179;DHT22;51849;47.476;8.084;2022-07-10T10:32:40;24.70;43.00
65179;DHT22;51849;47.476;8.084;2022-07-10T10:35:06;24.70;44.50
65179;DHT22;51849;47.476;8.084;2022-07-10T10:40:04;24.80;45.90
65179;DHT22;51849;47.476;8.084;2022-07-10T10:48:00;25.00;45.60
65179;DHT22;51849;47.476;8.084;2022-07-10T11:01:23;24.90;43.20
65179;DHT22;51849;47.476;8.084;2022-07-10T11:12:01;25.20;44.00
65179;DHT22;51849;47.476;8.084;2022-07-10T11:14:30;25.10;43.30
65179;DHT22;51849;47.476;8.084;2022-07-10T11:16:59;25.20;43.60
65179;DHT22;51849;47.476;8.084;2022-07-10T11:19:26;25.20;42.70
65179;DHT22;51849;47.476;8.084;2022-07-10T11:30:19;25.40;43.30
65179;DHT22;51849;47.476;8.084;2022-07-10T11:32:45;25.30;43.10
65179;DHT22;51849;47.476;8.084;2022-07-10T11:35:14;25.50;42.30
65179;DHT22;51849;47.476;8.084;2022-07-10T11:37:50;25.70;41.60
65179;DHT22;51849;47.476;8.084;2022-07-10T11:40:17;25.80;41.50
65179;DHT22;51849;47.476;8.084;2022-07-10T11:42:56;25.80;41.70
65179;DHT22;51849;47.476;8.084;2022-07-10T11:45:27;26.00;40.20
65179;DHT22;51849;47.476;8.084;2022-07-10T11:47:54;25.90;41.40
65179;DHT22;51849;47.476;8.084;2022-07-10T11:50:21;25.90;40.60
65179;DHT22;51849;47.476;8.084;2022-07-10T11:52:47;25.70;41.40
65179;DHT22;51849;47.476;8.084;2022-07-10T11:55:14;25.90;41.00
65179;DHT22;51849;47.476;8.084;2022-07-10T11:57:41;25.60;41.70
65179;DHT22;51849;47.476;8.084;2022-07-10T12:00:25;25.80;40.60
65179;DHT22;51849;47.476;8.084;2022-07-10T12:02:56;25.80;41.00
65179;DHT22;51849;47.476;8.084;2022-07-10T12:05:40;25.90;40.40
65179;DHT22;51849;47.476;8.084;2022-07-10T12:08:06;25.70;39.20
65179;DHT22;51849;47.476;8.084;2022-07-10T12:10:33;25.50;39.90
65179;DHT22;51849;47.476;8.084;2022-07-10T12:13:06;25.30;40.90
65179;DHT22;51849;47.476;8.084;2022-07-10T12:15:40;25.10;41.30
65179;DHT22;51849;47.476;8.084;2022-07-10T12:18:14;25.00;40.90
65179;DHT22;51849;47.476;8.084;2022-07-10T12:20:44;25.20;39.90
65179;DHT22;51849;47.476;8.084;2022-07-10T12:23:16;25.10;40.00
65179;DHT22;51849;47.476;8.084;2022-07-10T12:25:42;25.20;40.20
65179;DHT22;51849;47.476;8.084;2022-07-10T12:28:09;25.40;39.50
65179;DHT22;51849;47.476;8.084;2022-07-10T12:30:44;25.60;38.70
65179;DHT22;51849;47.476;8.084;2022-07-10T12:33:11;25.70;39.00
65179;DHT22;51849;47.476;8.084;2022-07-10T12:41:11;25.20;37.70
65179;DHT22;51849;47.476;8.084;2022-07-10T12:43:38;25.30;38.50
65179;DHT22;51849;47.476;8.084;2022-07-10T12:46:12;25.50;38.60
65179;DHT22;51849;47.476;8.084;2022-07-10T12:49:03;25.70;37.60
65179;DHT22;51849;47.476;8.084;2022-07-10T12:51:46;25.70;37.80
65179;DHT22;51849;47.476;8.084;2022-07-10T12:54:34;25.80;38.50
65179;DHT22;51849;47.476;8.084;2022-07-10T12:57:01;25.90;37.80
65179;DHT22;51849;47.476;8.084;2022-07-10T12:59:31;26.10;37.80
65179;DHT22;51849;47.476;8.084;2022-07-10T13:01:59;26.20;37.30
65179;DHT22;51849;47.476;8.084;2022-07-10T13:04:55;26.20;36.90
65179;DHT22;51849;47.476;8.084;2022-07-10T13:07:28;26.20;37.10
65179;DHT22;51849;47.476;8.084;2022-07-10T13:09:55;26.20;37.00
65179;DHT22;51849;47.476;8.084;2022-07-10T13:12:24;26.30;36.60
65179;DHT22;51849;47.476;8.084;2022-07-10T13:14:49;26.50;35.30
65179;DHT22;51849;47.476;8.084;2022-07-10T13:17:16;26.50;35.70
65179;DHT22;51849;47.476;8.084;2022-07-10T13:19:41;26.50;36.00
65179;DHT22;51849;47.476;8.084;2022-07-10T13:22:07;26.50;36.20
65179;DHT22;51849;47.476;8.084;2022-07-10T13:24:33;26.70;35.60
65179;DHT22;51849;47.476;8.084;2022-07-10T13:26:59;26.50;35.20
65179;DHT22;51849;47.476;8.084;2022-07-10T13:29:27;26.20;35.80
65179;DHT22;51849;47.476;8.084;2022-07-10T13:31:53;26.10;35.60
65179;DHT22;51849;47.476;8.084;2022-07-10T13:34:19;26.20;36.00
65179;DHT22;51849;47.476;8.084;2022-07-10T13:36:47;26.40;35.10
65179;DHT22;51849;47.476;8.084;2022-07-10T13:39:12;26.30;35.20
65179;DHT22;51849;47.476;8.084;2022-07-10T13:41:39;26.20;34.00
65179;DHT22;51849;47.476;8.084;2022-07-10T13:44:05;26.10;34.00
65179;DHT22;51849;47.476;8.084;2022-07-10T13:46:30;26.10;34.00
65179;DHT22;51849;47.476;8.084;2022-07-10T13:48:59;26.20;34.20
65179;DHT22;51849;47.476;8.084;2022-07-10T13:51:25;26.00;34.90
65179;DHT22;51849;47.476;8.084;2022-07-10T13:53:50;26.20;33.90
65179;DHT22;51849;47.476;8.084;2022-07-10T13:56:18;26.30;34.20
65179;DHT22;51849;47.476;8.084;2022-07-10T13:58:44;26.40;34.60
65179;DHT22;51849;47.476;8.084;2022-07-10T14:01:10;26.40;34.60
65179;DHT22;51849;47.476;8.084;2022-07-10T14:03:36;26.50;33.80
65179;DHT22;51849;47.476;8.084;2022-07-10T14:06:01;26.50;34.40
65179;DHT22;51849;47.476;8.084;2022-07-10T14:08:27;26.40;34.40
65179;DHT22;51849;47.476;8.084;2022-07-10T14:10:53;26.30;34.40
65179;DHT22;51849;47.476;8.084;2022-07-10T14:13:19;26.30;34.30
65179;DHT22;51849;47.476;8.084;2022-07-10T14:15:45;26.50;33.60
65179;DHT22;51849;47.476;8.084;2022-07-10T14:18:11;26.60;34.40
65179;DHT22;51849;47.476;8.084;2022-07-10T14:20:39;26.60;33.90
65179;DHT22;51849;47.476;8.084;2022-07-10T14:23:23;26.70;33.50
65179;DHT22;51849;47.476;8.084;2022-07-10T14:25:49;26.70;33.50
65179;DHT22;51849;47.476;8.084;2022-07-10T14:28:15;26.60;34.10
65179;DHT22;51849;47.476;8.084;2022-07-10T14:30:41;26.80;34.10
65179;DHT22;51849;47.476;8.084;2022-07-10T14:33:07;26.90;34.40
65179;DHT22;51849;47.476;8.084;2022-07-10T14:35:33;26.80;33.60
65179;DHT22;51849;47.476;8.084;2022-07-10T14:37:58;26.80;33.60
65179;DHT22;51849;47.476;8.084;2022-07-10T14:40:26;26.80;33.60
65179;DHT22;51849;47.476;8.084;2022-07-10T14:42:52;26.80;33.30
65179;DHT22;51849;47.476;8.084;2022-07-10T14:45:22;26.80;33.40
65179;DHT22;51849;47.476;8.084;2022-07-10T14:47:49;26.90;33.10
65179;DHT22;51849;47.476;8.084;2022-07-10T14:50:15;26.80;33.30
65179;DHT22;51849;47.476;8.084;2022-07-10T14:52:44;26.70;33.80
65179;DHT22;51849;47.476;8.084;2022-07-10T14:55:12;26.60;33.50
65179;DHT22;51849;47.476;8.084;2022-07-10T14:57:37;26.50;33.10
65179;DHT22;51849;47.476;8.084;2022-07-10T15:00:03;26.40;34.10
65179;DHT22;51849;47.476;8.084;2022-07-10T15:02:30;26.50;34.10
65179;DHT22;51849;47.476;8.084;2022-07-10T15:04:55;26.50;34.30
65179;DHT22;51849;47.476;8.084;2022-07-10T15:07:23;26.50;33.70
65179;DHT22;51849;47.476;8.084;2022-07-10T15:09:49;26.60;33.40
65179;DHT22;51849;47.476;8.084;2022-07-10T15:12:18;26.50;33.60
65179;DHT22;51849;47.476;8.084;2022-07-10T15:14:45;26.50;33.60
65179;DHT22;51849;47.476;8.084;2022-07-10T15:17:12;26.50;33.70
65179;DHT22;51849;47.476;8.084;2022-07-10T15:19:38;26.30;32.70
65179;DHT22;51849;47.476;8.084;2022-07-10T15:22:03;26.10;33.10
65179;DHT22;51849;47.476;8.084;2022-07-10T15:24:29;26.20;33.00
65179;DHT22;51849;47.476;8.084;2022-07-10T15:26:56;26.30;32.90
65179;DHT22;51849;47.476;8.084;2022-07-10T15:29:22;26.40;32.50
65179;DHT22;51849;47.476;8.084;2022-07-10T15:31:50;26.50;32.60
65179;DHT22;51849;47.476;8.084;2022-07-10T15:34:17;26.50;32.10
65179;DHT22;51849;47.476;8.084;2022-07-10T15:36:43;26.40;31.70
65179;DHT22;51849;47.476;8.084;2022-07-10T15:39:14;26.30;31.10
65179;DHT22;51849;47.476;8.084;2022-07-10T15:41:40;26.30;32.40
65179;DHT22;51849;47.476;8.084;2022-07-10T15:44:10;26.30;31.30
65179;DHT22;51849;47.476;8.084;2022-07-10T15:46:36;26.30;31.20
65179;DHT22;51849;47.476;8.084;2022-07-10T15:49:02;26.30;31.40
65179;DHT22;51849;47.476;8.084;2022-07-10T15:51:29;26.20;31.40
65179;DHT22;51849;47.476;8.084;2022-07-10T15:53:58;26.20;31.50
65179;DHT22;51849;47.476;8.084;2022-07-10T15:56:24;26.20;30.90
65179;DHT22;51849;47.476;8.084;2022-07-10T15:58:50;26.10;30.80
65179;DHT22;51849;47.476;8.084;2022-07-10T16:01:16;26.10;31.10
65179;DHT22;51849;47.476;8.084;2022-07-10T16:03:42;26.20;30.60
65179;DHT22;51849;47.476;8.084;2022-07-10T16:06:11;26.20;29.60
65179;DHT22;51849;47.476;8.084;2022-07-10T16:08:38;26.30;30.40
65179;DHT22;51849;47.476;8.084;2022-07-10T16:11:04;26.30;29.80
65179;DHT22;51849;47.476;8.084;2022-07-10T16:13:32;26.30;29.40
65179;DHT22;51849;47.476;8.084;2022-07-10T16:15:59;26.10;29.80
65179;DHT22;51849;47.476;8.084;2022-07-10T16:18:25;26.00;29.80
65179;DHT22;51849;47.476;8.084;2022-07-10T16:20:51;26.00;29.70
65179;DHT22;51849;47.476;8.084;2022-07-10T16:23:17;26.00;29.90